Portada
METAR-TAF:

METAR-TAF

Aeroports :

Kunming, Xina

latitud: 25-01N, longitud: 102-41E, altitud: 1892 m

Observació

L'informe es va fer fa 31 minuts, a les 21:00 UTC
Vent 2 kt del Nord
Temperatura 18°C
Humitat 100%
Pressió 1018 hPa
Visibilitat 10 km o més
Escasses núvols a una alçada de 2600 ft

METAR: ZPPP 062100Z 01001MPS 9999 FEW026 18/18 Q1018 NOSIG

Hora: 05:31 (21:31 UTC)

Pronòstic

L'informe es va fer fa 6 hores i 30 minuts, a les 15:01 UTC
Pronòstic vàlid del 06 a les 18 UTC al 07 a les 18 UTC
Vent 8 kt del Sud/Sud-Oest
Visibilitat 10 km o més
Núvols disperses a una alçada de 2300 ft
Cel ennuvolat a una alçada de 4000 ft

TAF: ZPPP 061501Z 0618/0718 21004MPS 9999 SCT023 BKN040 TX26/0708Z TN17/0623Z

Observacions i pronòstics meteorològics de més de 4000 aeroports (METAR i TAF).

Les estacions disponibles són els punts grocs i vermells al mapa.

Posi el ratolí al punt desitjat per veure el nom de l'estació.

Feu clic per veure les observacions i els pronòstics meteorològics.

Per canviar el mapa: feu clic els botons verds amb una creu de color negre per apropar; al botó verd amb un guió per allunyar la imatge; o en les fletxes verdes per a mapes adjacents.


METAR-TAF: